sensor_id;sensor_type;location;lat;lon;timestamp;pressure;altitude;pressure_sealevel;temperature;humidity
61484;BME280;47349;55.640;37.692;2023-02-19T00:00:57;97738.34;;;-7.23;87.38
61484;BME280;47349;55.640;37.692;2023-02-19T00:03:24;97731.25;;;-7.21;88.11
61484;BME280;47349;55.640;37.692;2023-02-19T00:05:52;97722.94;;;-7.27;88.15
61484;BME280;47349;55.640;37.692;2023-02-19T00:08:18;97716.44;;;-7.32;88.20
61484;BME280;47349;55.640;37.692;2023-02-19T00:10:45;97713.94;;;-7.34;87.94
61484;BME280;47349;55.640;37.692;2023-02-19T00:13:12;97724.22;;;-7.32;88.58
61484;BME280;47349;55.640;37.692;2023-02-19T00:15:40;97712.03;;;-7.32;88.34
61484;BME280;47349;55.640;37.692;2023-02-19T00:18:07;97719.41;;;-7.26;88.37
61484;BME280;47349;55.640;37.692;2023-02-19T00:20:34;97716.91;;;-7.27;87.46
61484;BME280;47349;55.640;37.692;2023-02-19T00:23:01;97712.53;;;-7.27;88.38
61484;BME280;47349;55.640;37.692;2023-02-19T00:25:28;97707.13;;;-7.23;88.05
61484;BME280;47349;55.640;37.692;2023-02-19T00:27:55;97710.88;;;-7.28;87.75
61484;BME280;47349;55.640;37.692;2023-02-19T00:30:23;97700.44;;;-7.39;87.85
61484;BME280;47349;55.640;37.692;2023-02-19T00:32:50;97708.50;;;-7.31;88.03
61484;BME280;47349;55.640;37.692;2023-02-19T00:35:17;97690.75;;;-7.26;88.30
61484;BME280;47349;55.640;37.692;2023-02-19T00:37:44;97697.16;;;-7.30;88.23
61484;BME280;47349;55.640;37.692;2023-02-19T00:40:11;97700.31;;;-7.37;88.19
61484;BME280;47349;55.640;37.692;2023-02-19T00:42:39;97703.41;;;-7.32;88.61
61484;BME280;47349;55.640;37.692;2023-02-19T00:45:06;97703.19;;;-7.29;88.38
61484;BME280;47349;55.640;37.692;2023-02-19T00:47:33;97696.91;;;-7.27;88.42
61484;BME280;47349;55.640;37.692;2023-02-19T00:50:00;97695.47;;;-7.31;88.11
61484;BME280;47349;55.640;37.692;2023-02-19T00:52:28;97700.47;;;-7.28;88.39
61484;BME280;47349;55.640;37.692;2023-02-19T00:54:55;97696.22;;;-7.29;87.70
61484;BME280;47349;55.640;37.692;2023-02-19T00:57:22;97681.66;;;-7.31;88.37
61484;BME280;47349;55.640;37.692;2023-02-19T00:59:49;97675.81;;;-7.46;88.47
61484;BME280;47349;55.640;37.692;2023-02-19T01:02:16;97677.91;;;-7.51;89.05
61484;BME280;47349;55.640;37.692;2023-02-19T01:04:43;97674.59;;;-7.53;90.11
61484;BME280;47349;55.640;37.692;2023-02-19T01:07:10;97668.56;;;-7.54;90.41
61484;BME280;47349;55.640;37.692;2023-02-19T01:09:37;97669.75;;;-7.58;90.23
61484;BME280;47349;55.640;37.692;2023-02-19T01:12:05;97655.78;;;-7.57;90.89
61484;BME280;47349;55.640;37.692;2023-02-19T01:14:32;97653.69;;;-7.52;90.45
61484;BME280;47349;55.640;37.692;2023-02-19T01:16:59;97656.56;;;-7.43;91.42
61484;BME280;47349;55.640;37.692;2023-02-19T01:19:26;97653.34;;;-7.47;90.61
61484;BME280;47349;55.640;37.692;2023-02-19T01:21:53;97643.28;;;-7.52;90.75
61484;BME280;47349;55.640;37.692;2023-02-19T01:24:20;97643.59;;;-7.56;91.13
61484;BME280;47349;55.640;37.692;2023-02-19T01:26:47;97639.06;;;-7.65;91.22
61484;BME280;47349;55.640;37.692;2023-02-19T01:29:14;97643.25;;;-7.63;91.34
61484;BME280;47349;55.640;37.692;2023-02-19T01:31:41;97643.78;;;-7.70;91.15
61484;BME280;47349;55.640;37.692;2023-02-19T01:34:08;97637.22;;;-7.63;91.49
61484;BME280;47349;55.640;37.692;2023-02-19T01:36:36;97636.25;;;-7.62;91.23
61484;BME280;47349;55.640;37.692;2023-02-19T01:39:06;97630.13;;;-7.61;91.11
61484;BME280;47349;55.640;37.692;2023-02-19T01:41:34;97635.66;;;-7.66;91.44
61484;BME280;47349;55.640;37.692;2023-02-19T01:44:03;97624.16;;;-7.74;91.57
61484;BME280;47349;55.640;37.692;2023-02-19T01:46:34;97625.84;;;-7.73;91.17
61484;BME280;47349;55.640;37.692;2023-02-19T01:51:32;97629.50;;;-7.65;91.69
61484;BME280;47349;55.640;37.692;2023-02-19T01:54:03;97627.25;;;-7.69;91.50
61484;BME280;47349;55.640;37.692;2023-02-19T01:56:31;97625.72;;;-7.72;91.77
61484;BME280;47349;55.640;37.692;2023-02-19T01:58:59;97626.25;;;-7.80;91.38
61484;BME280;47349;55.640;37.692;2023-02-19T02:01:27;97624.06;;;-7.73;91.53
61484;BME280;47349;55.640;37.692;2023-02-19T02:03:54;97621.53;;;-7.74;91.46
61484;BME280;47349;55.640;37.692;2023-02-19T02:06:22;97626.16;;;-7.78;90.87
61484;BME280;47349;55.640;37.692;2023-02-19T02:08:50;97623.94;;;-7.71;90.71
61484;BME280;47349;55.640;37.692;2023-02-19T02:11:37;97622.44;;;-7.63;90.73
61484;BME280;47349;55.640;37.692;2023-02-19T02:14:06;97627.63;;;-7.63;90.33
61484;BME280;47349;55.640;37.692;2023-02-19T02:38:23;97619.44;;;-7.69;89.05
61484;BME280;47349;55.640;37.692;2023-02-19T02:40:52;97616.41;;;-7.63;89.58
61484;BME280;47349;55.640;37.692;2023-02-19T02:43:20;97615.44;;;-7.73;89.17
61484;BME280;47349;55.640;37.692;2023-02-19T02:45:48;97610.59;;;-7.67;88.91
61484;BME280;47349;55.640;37.692;2023-02-19T02:50:54;97601.53;;;-7.50;88.79
61484;BME280;47349;55.640;37.692;2023-02-19T02:53:40;97602.75;;;-7.43;88.12
61484;BME280;47349;55.640;37.692;2023-02-19T02:56:29;97595.97;;;-7.45;88.13
61484;BME280;47349;55.640;37.692;2023-02-19T02:58:57;97604.94;;;-7.61;88.08
61484;BME280;47349;55.640;37.692;2023-02-19T03:01:29;97603.16;;;-7.60;88.62
61484;BME280;47349;55.640;37.692;2023-02-19T03:04:25;97600.88;;;-7.65;88.32
61484;BME280;47349;55.640;37.692;2023-02-19T03:06:56;97592.19;;;-7.53;89.08
61484;BME280;47349;55.640;37.692;2023-02-19T03:09:36;97586.84;;;-7.62;89.15
61484;BME280;47349;55.640;37.692;2023-02-19T03:12:10;97586.16;;;-7.53;88.60
61484;BME280;47349;55.640;37.692;2023-02-19T03:14:58;97593.22;;;-7.55;88.67
61484;BME280;47349;55.640;37.692;2023-02-19T03:17:47;97585.09;;;-7.51;89.70
61484;BME280;47349;55.640;37.692;2023-02-19T03:20:33;97584.13;;;-7.50;89.56
61484;BME280;47349;55.640;37.692;2023-02-19T03:23:02;97592.81;;;-7.49;89.57
61484;BME280;47349;55.640;37.692;2023-02-19T03:25:32;97581.19;;;-7.56;89.42
61484;BME280;47349;55.640;37.692;2023-02-19T03:28:29;97579.53;;;-7.57;90.16
61484;BME280;47349;55.640;37.692;2023-02-19T03:31:18;97576.78;;;-7.67;90.75
61484;BME280;47349;55.640;37.692;2023-02-19T03:33:48;97585.63;;;-7.69;90.59
61484;BME280;47349;55.640;37.692;2023-02-19T03:36:17;97576.31;;;-7.61;91.55
61484;BME280;47349;55.640;37.692;2023-02-19T03:38:59;97576.44;;;-7.62;91.91
61484;BME280;47349;55.640;37.692;2023-02-19T03:44:06;97565.22;;;-7.63;92.48
61484;BME280;47349;55.640;37.692;2023-02-19T03:49:07;97564.13;;;-7.71;92.39
61484;BME280;47349;55.640;37.692;2023-02-19T03:51:40;97574.88;;;-7.76;92.58
61484;BME280;47349;55.640;37.692;2023-02-19T03:54:16;97561.75;;;-7.74;93.02
61484;BME280;47349;55.640;37.692;2023-02-19T03:57:46;97565.06;;;-7.72;92.71
61484;BME280;47349;55.640;37.692;2023-02-19T04:00:04;97554.53;;;-7.71;92.81
61484;BME280;47349;55.640;37.692;2023-02-19T04:02:43;97555.09;;;-7.79;92.29
61484;BME280;47349;55.640;37.692;2023-02-19T04:05:24;97555.97;;;-7.78;92.79
61484;BME280;47349;55.640;37.692;2023-02-19T04:07:53;97558.31;;;-7.75;92.61
61484;BME280;47349;55.640;37.692;2023-02-19T04:10:27;97571.44;;;-7.77;92.52
61484;BME280;47349;55.640;37.692;2023-02-19T04:13:00;97555.34;;;-7.82;92.74
61484;BME280;47349;55.640;37.692;2023-02-19T04:15:29;97558.06;;;-7.83;93.09
61484;BME280;47349;55.640;37.692;2023-02-19T04:18:01;97561.50;;;-7.83;92.92
61484;BME280;47349;55.640;37.692;2023-02-19T04:20:31;97560.91;;;-7.75;92.61
61484;BME280;47349;55.640;37.692;2023-02-19T04:23:00;97549.31;;;-7.82;93.43
61484;BME280;47349;55.640;37.692;2023-02-19T04:25:27;97543.38;;;-7.84;93.42
61484;BME280;47349;55.640;37.692;2023-02-19T04:27:55;97559.13;;;-7.86;93.27
61484;BME280;47349;55.640;37.692;2023-02-19T04:30:24;97551.81;;;-7.81;93.58
61484;BME280;47349;55.640;37.692;2023-02-19T04:32:51;97554.66;;;-7.72;93.84
61484;BME280;47349;55.640;37.692;2023-02-19T04:35:18;97549.81;;;-7.77;93.92
61484;BME280;47349;55.640;37.692;2023-02-19T04:37:45;97546.25;;;-7.76;93.72
61484;BME280;47349;55.640;37.692;2023-02-19T04:40:12;97553.94;;;-7.74;93.54
61484;BME280;47349;55.640;37.692;2023-02-19T04:42:40;97552.28;;;-7.76;92.51
61484;BME280;47349;55.640;37.692;2023-02-19T04:45:07;97542.22;;;-7.80;92.99
61484;BME280;47349;55.640;37.692;2023-02-19T04:47:33;97544.81;;;-7.80;93.63
61484;BME280;47349;55.640;37.692;2023-02-19T04:50:01;97535.97;;;-7.78;93.47
61484;BME280;47349;55.640;37.692;2023-02-19T04:52:28;97545.22;;;-7.73;93.95
61484;BME280;47349;55.640;37.692;2023-02-19T04:54:55;97545.22;;;-7.73;94.01
61484;BME280;47349;55.640;37.692;2023-02-19T04:57:22;97539.06;;;-7.72;93.70
61484;BME280;47349;55.640;37.692;2023-02-19T04:59:49;97529.84;;;-7.65;93.37
61484;BME280;47349;55.640;37.692;2023-02-19T05:02:16;97526.06;;;-7.72;93.72
61484;BME280;47349;55.640;37.692;2023-02-19T05:04:43;97529.63;;;-7.73;93.71
61484;BME280;47349;55.640;37.692;2023-02-19T05:07:10;97535.28;;;-7.68;94.09
61484;BME280;47349;55.640;37.692;2023-02-19T05:09:37;97537.41;;;-7.73;94.22
61484;BME280;47349;55.640;37.692;2023-02-19T05:12:04;97532.66;;;-7.80;94.09
61484;BME280;47349;55.640;37.692;2023-02-19T05:14:31;97524.16;;;-7.82;94.44
61484;BME280;47349;55.640;37.692;2023-02-19T05:16:58;97523.91;;;-7.79;94.81
61484;BME280;47349;55.640;37.692;2023-02-19T05:19:25;97522.72;;;-7.86;94.18
61484;BME280;47349;55.640;37.692;2023-02-19T05:21:52;97522.50;;;-7.83;94.90
61484;BME280;47349;55.640;37.692;2023-02-19T05:24:19;97517.28;;;-7.83;94.43
61484;BME280;47349;55.640;37.692;2023-02-19T05:26:46;97523.31;;;-7.82;94.92
61484;BME280;47349;55.640;37.692;2023-02-19T05:29:14;97521.09;;;-7.76;94.93
61484;BME280;47349;55.640;37.692;2023-02-19T05:31:41;97526.16;;;-7.74;94.58
61484;BME280;47349;55.640;37.692;2023-02-19T05:34:08;97522.38;;;-7.70;94.82
61484;BME280;47349;55.640;37.692;2023-02-19T05:36:35;97524.91;;;-7.68;94.72
61484;BME280;47349;55.640;37.692;2023-02-19T05:39:02;97512.59;;;-7.55;94.67
61484;BME280;47349;55.640;37.692;2023-02-19T05:41:32;97517.09;;;-7.57;94.15
61484;BME280;47349;55.640;37.692;2023-02-19T05:43:59;97517.09;;;-7.57;93.21
61484;BME280;47349;55.640;37.692;2023-02-19T05:46:27;97511.03;;;-7.69;93.77
61484;BME280;47349;55.640;37.692;2023-02-19T05:48:55;97513.69;;;-7.58;94.60
61484;BME280;47349;55.640;37.692;2023-02-19T05:51:26;97506.47;;;-7.54;94.08
61484;BME280;47349;55.640;37.692;2023-02-19T05:53:53;97510.59;;;-7.52;93.24
61484;BME280;47349;55.640;37.692;2023-02-19T05:56:31;97510.50;;;-7.39;93.14
61484;BME280;47349;55.640;37.692;2023-02-19T05:58:59;97507.16;;;-7.41;92.25
61484;BME280;47349;55.640;37.692;2023-02-19T06:01:27;97509.91;;;-7.42;92.53
61484;BME280;47349;55.640;37.692;2023-02-19T06:03:56;97506.00;;;-7.26;92.81
61484;BME280;47349;55.640;37.692;2023-02-19T06:06:25;97503.50;;;-7.16;92.43
61484;BME280;47349;55.640;37.692;2023-02-19T06:08:52;97499.59;;;-7.21;91.43
61484;BME280;47349;55.640;37.692;2023-02-19T06:11:20;97508.38;;;-7.22;91.22
61484;BME280;47349;55.640;37.692;2023-02-19T06:13:47;97503.66;;;-7.29;91.05
61484;BME280;47349;55.640;37.692;2023-02-19T06:16:16;97504.59;;;-7.30;90.79
61484;BME280;47349;55.640;37.692;2023-02-19T06:18:43;97504.34;;;-7.27;91.26
61484;BME280;47349;55.640;37.692;2023-02-19T06:21:11;97506.59;;;-7.33;91.03
61484;BME280;47349;55.640;37.692;2023-02-19T06:23:38;97505.06;;;-7.25;91.61
61484;BME280;47349;55.640;37.692;2023-02-19T06:26:10;97509.06;;;-7.20;91.36
61484;BME280;47349;55.640;37.692;2023-02-19T06:28:38;97510.50;;;-7.16;91.00
61484;BME280;47349;55.640;37.692;2023-02-19T06:31:05;97512.63;;;-7.21;90.41
61484;BME280;47349;55.640;37.692;2023-02-19T06:33:33;97503.75;;;-7.08;91.73
61484;BME280;47349;55.640;37.692;2023-02-19T06:36:01;97508.47;;;-7.02;91.37
61484;BME280;47349;55.640;37.692;2023-02-19T06:38:29;97499.59;;;-6.99;90.99
61484;BME280;47349;55.640;37.692;2023-02-19T06:41:05;97498.88;;;-7.01;90.02
61484;BME280;47349;55.640;37.692;2023-02-19T06:43:33;97490.47;;;-6.93;90.21
61484;BME280;47349;55.640;37.692;2023-02-19T06:46:01;97486.34;;;-6.96;90.19
61484;BME280;47349;55.640;37.692;2023-02-19T06:48:28;97488.22;;;-6.87;90.09
61484;BME280;47349;55.640;37.692;2023-02-19T06:50:56;97492.13;;;-6.81;90.06
61484;BME280;47349;55.640;37.692;2023-02-19T06:53:23;97487.50;;;-6.89;89.24
61484;BME280;47349;55.640;37.692;2023-02-19T06:55:57;97485.13;;;-6.92;89.89
61484;BME280;47349;55.640;37.692;2023-02-19T06:58:25;97475.19;;;-6.87;89.77
61484;BME280;47349;55.640;37.692;2023-02-19T07:00:52;97478.75;;;-6.88;90.20
61484;BME280;47349;55.640;37.692;2023-02-19T07:03:20;97476.97;;;-6.87;89.76
61484;BME280;47349;55.640;37.692;2023-02-19T07:05:47;97472.59;;;-6.76;89.71
61484;BME280;47349;55.640;37.692;2023-02-19T07:08:14;97473.50;;;-6.65;90.03
61484;BME280;47349;55.640;37.692;2023-02-19T07:10:43;97462.56;;;-6.59;89.35
61484;BME280;47349;55.640;37.692;2023-02-19T07:13:10;97479.63;;;-6.55;88.33
61484;BME280;47349;55.640;37.692;2023-02-19T07:15:37;97468.97;;;-6.52;88.19
61484;BME280;47349;55.640;37.692;2023-02-19T07:18:04;97469.19;;;-6.55;86.36
61484;BME280;47349;55.640;37.692;2023-02-19T07:20:36;97467.28;;;-6.42;87.26
61484;BME280;47349;55.640;37.692;2023-02-19T07:23:05;97466.53;;;-6.44;87.01
61484;BME280;47349;55.640;37.692;2023-02-19T07:25:32;97464.53;;;-6.40;86.45
61484;BME280;47349;55.640;37.692;2023-02-19T07:27:59;97452.63;;;-6.54;86.40
61484;BME280;47349;55.640;37.692;2023-02-19T07:30:26;97453.97;;;-6.71;85.50
61484;BME280;47349;55.640;37.692;2023-02-19T07:32:54;97453.34;;;-6.63;86.25
61484;BME280;47349;55.640;37.692;2023-02-19T07:35:21;97454.81;;;-6.70;86.11
61484;BME280;47349;55.640;37.692;2023-02-19T07:37:48;97449.69;;;-6.61;86.60
61484;BME280;47349;55.640;37.692;2023-02-19T07:40:15;97448.50;;;-6.57;86.84
61484;BME280;47349;55.640;37.692;2023-02-19T07:42:42;97456.88;;;-6.53;87.06
61484;BME280;47349;55.640;37.692;2023-02-19T07:45:09;97452.63;;;-6.54;86.95
61484;BME280;47349;55.640;37.692;2023-02-19T07:47:36;97446.72;;;-6.56;87.13
61484;BME280;47349;55.640;37.692;2023-02-19T07:50:04;97446.72;;;-6.56;87.59
61484;BME280;47349;55.640;37.692;2023-02-19T07:52:32;97446.22;;;-6.50;87.31
61484;BME280;47349;55.640;37.692;2023-02-19T07:54:59;97442.28;;;-6.44;87.81
61484;BME280;47349;55.640;37.692;2023-02-19T07:57:27;97433.84;;;-6.37;86.87
61484;BME280;47349;55.640;37.692;2023-02-19T07:59:54;97443.88;;;-6.32;86.65
61484;BME280;47349;55.640;37.692;2023-02-19T08:02:21;97430.03;;;-6.12;87.37
61484;BME280;47349;55.640;37.692;2023-02-19T08:05:07;97429.78;;;-6.09;86.10
61484;BME280;47349;55.640;37.692;2023-02-19T08:07:35;97431.38;;;-6.17;86.05
61484;BME280;47349;55.640;37.692;2023-02-19T08:10:02;97422.59;;;-6.16;86.39
61484;BME280;47349;55.640;37.692;2023-02-19T08:12:57;97424.81;;;-6.33;85.92
61484;BME280;47349;55.640;37.692;2023-02-19T08:15:44;97435.41;;;-6.25;87.03
61484;BME280;47349;55.640;37.692;2023-02-19T08:18:11;97425.88;;;-6.14;87.71
61484;BME280;47349;55.640;37.692;2023-02-19T08:20:39;97418.91;;;-5.93;87.44
61484;BME280;47349;55.640;37.692;2023-02-19T08:23:06;97424.56;;;-6.09;86.34
61484;BME280;47349;55.640;37.692;2023-02-19T08:25:33;97418.66;;;-6.11;86.62
61484;BME280;47349;55.640;37.692;2023-02-19T08:28:00;97427.03;;;-6.07;87.43
61484;BME280;47349;55.640;37.692;2023-02-19T08:30:28;97418.97;;;-6.04;87.17
61484;BME280;47349;55.640;37.692;2023-02-19T08:32:56;97415.06;;;-5.89;86.39
61484;BME280;47349;55.640;37.692;2023-02-19T08:35:24;97412.91;;;-6.05;86.79
61484;BME280;47349;55.640;37.692;2023-02-19T08:37:55;97419.28;;;-5.98;85.97
61484;BME280;47349;55.640;37.692;2023-02-19T08:40:23;97414.22;;;-5.89;85.94
61484;BME280;47349;55.640;37.692;2023-02-19T08:42:50;97406.81;;;-5.94;85.79
61484;BME280;47349;55.640;37.692;2023-02-19T08:45:17;97410.81;;;-5.80;86.09
61484;BME280;47349;55.640;37.692;2023-02-19T08:47:44;97414.66;;;-5.84;85.73
61484;BME280;47349;55.640;37.692;2023-02-19T08:50:12;97409.19;;;-5.81;86.08
61484;BME280;47349;55.640;37.692;2023-02-19T08:52:39;97407.09;;;-5.87;86.58
61484;BME280;47349;55.640;37.692;2023-02-19T08:55:06;97409.84;;;-5.89;86.89
61484;BME280;47349;55.640;37.692;2023-02-19T08:57:36;97406.69;;;-5.92;86.32
61484;BME280;47349;55.640;37.692;2023-02-19T09:00:06;97401.50;;;-5.83;87.26
61484;BME280;47349;55.640;37.692;2023-02-19T09:02:34;97399.56;;;-5.81;86.98
61484;BME280;47349;55.640;37.692;2023-02-19T09:05:01;97403.72;;;-5.78;86.48
61484;BME280;47349;55.640;37.692;2023-02-19T09:07:28;97398.44;;;-5.57;86.25
61484;BME280;47349;55.640;37.692;2023-02-19T09:09:55;97400.94;;;-5.56;85.83
61484;BME280;47349;55.640;37.692;2023-02-19T09:12:23;97403.75;;;-5.69;85.31
61484;BME280;47349;55.640;37.692;2023-02-19T09:14:50;97396.19;;;-5.72;86.08
61484;BME280;47349;55.640;37.692;2023-02-19T09:17:17;97389.94;;;-5.59;86.53
61484;BME280;47349;55.640;37.692;2023-02-19T09:19:44;97389.06;;;-5.70;85.17
61484;BME280;47349;55.640;37.692;2023-02-19T09:22:11;97386.34;;;-5.58;85.83
61484;BME280;47349;55.640;37.692;2023-02-19T09:24:38;97391.28;;;-5.65;85.20
61484;BME280;47349;55.640;37.692;2023-02-19T09:27:05;97386.84;;;-5.74;84.92
61484;BME280;47349;55.640;37.692;2023-02-19T09:29:32;97376.44;;;-5.64;85.77
61484;BME280;47349;55.640;37.692;2023-02-19T09:32:00;97378.97;;;-5.53;86.02
61484;BME280;47349;55.640;37.692;2023-02-19T09:34:27;97371.66;;;-5.59;85.67
61484;BME280;47349;55.640;37.692;2023-02-19T09:36:54;97385.28;;;-5.56;84.84
61484;BME280;47349;55.640;37.692;2023-02-19T09:39:21;97370.44;;;-5.55;84.26
61484;BME280;47349;55.640;37.692;2023-02-19T09:41:59;97368.78;;;-5.56;84.54
61484;BME280;47349;55.640;37.692;2023-02-19T09:44:31;97364.25;;;-5.54;84.61
61484;BME280;47349;55.640;37.692;2023-02-19T09:46:59;97365.44;;;-5.68;84.83
61484;BME280;47349;55.640;37.692;2023-02-19T09:49:33;97363.53;;;-5.66;84.78
61484;BME280;47349;55.640;37.692;2023-02-19T09:54:37;97360.38;;;-5.70;84.83
61484;BME280;47349;55.640;37.692;2023-02-19T09:57:05;97358.19;;;-5.64;85.52
61484;BME280;47349;55.640;37.692;2023-02-19T09:59:40;97357.66;;;-5.58;84.86
61484;BME280;47349;55.640;37.692;2023-02-19T10:04:42;97359.91;;;-5.44;84.35
61484;BME280;47349;55.640;37.692;2023-02-19T10:07:11;97341.03;;;-5.57;83.62
61484;BME280;47349;55.640;37.692;2023-02-19T10:09:39;97346.34;;;-5.69;84.11
61484;BME280;47349;55.640;37.692;2023-02-19T10:12:11;97342.22;;;-5.71;85.57
61484;BME280;47349;55.640;37.692;2023-02-19T10:14:42;97346.59;;;-5.72;85.56
61484;BME280;47349;55.640;37.692;2023-02-19T10:17:13;97353.03;;;-5.76;85.89
61484;BME280;47349;55.640;37.692;2023-02-19T10:19:44;97348.44;;;-5.62;85.95
61484;BME280;47349;55.640;37.692;2023-02-19T10:22:11;97348.59;;;-5.54;84.79
61484;BME280;47349;55.640;37.692;2023-02-19T10:24:39;97344.06;;;-5.52;85.56
61484;BME280;47349;55.640;37.692;2023-02-19T10:27:11;97350.84;;;-5.40;84.91
61484;BME280;47349;55.640;37.692;2023-02-19T10:29:38;97352.78;;;-5.23;84.42
61484;BME280;47349;55.640;37.692;2023-02-19T10:32:16;97344.97;;;-5.23;83.64
61484;BME280;47349;55.640;37.692;2023-02-19T10:34:46;97337.56;;;-4.98;83.44
61484;BME280;47349;55.640;37.692;2023-02-19T10:37:14;97343.66;;;-4.88;82.30
61484;BME280;47349;55.640;37.692;2023-02-19T10:42:13;97349.28;;;-4.73;80.96
61484;BME280;47349;55.640;37.692;2023-02-19T10:44:42;97331.53;;;-4.60;81.53
61484;BME280;47349;55.640;37.692;2023-02-19T10:47:13;97344.59;;;-4.79;80.66
61484;BME280;47349;55.640;37.692;2023-02-19T10:49:42;97343.50;;;-5.06;80.86
61484;BME280;47349;55.640;37.692;2023-02-19T10:52:13;97341.97;;;-5.08;83.57
61484;BME280;47349;55.640;37.692;2023-02-19T10:54:44;97334.84;;;-5.06;82.95
61484;BME280;47349;55.640;37.692;2023-02-19T10:59:48;97326.31;;;-4.79;83.49
61484;BME280;47349;55.640;37.692;2023-02-19T11:02:17;97322.59;;;-4.67;82.03
61484;BME280;47349;55.640;37.692;2023-02-19T11:05:01;97323.97;;;-4.73;80.75
61484;BME280;47349;55.640;37.692;2023-02-19T11:07:29;97328.50;;;-4.55;81.52
61484;BME280;47349;55.640;37.692;2023-02-19T11:09:56;97324.22;;;-4.37;81.43
61484;BME280;47349;55.640;37.692;2023-02-19T11:12:26;97328.81;;;-4.02;80.96
61484;BME280;47349;55.640;37.692;2023-02-19T11:14:56;97321.16;;;-3.76;79.67
61484;BME280;47349;55.640;37.692;2023-02-19T11:17:42;97320.69;;;-3.44;77.93
61484;BME280;47349;55.640;37.692;2023-02-19T11:20:13;97307.28;;;-3.31;76.75
61484;BME280;47349;55.640;37.692;2023-02-19T11:22:42;97315.81;;;-3.56;76.98
61484;BME280;47349;55.640;37.692;2023-02-19T11:25:17;97317.22;;;-3.90;77.34
61484;BME280;47349;55.640;37.692;2023-02-19T11:33:12;97318.84;;;-4.35;78.28
61484;BME280;47349;55.640;37.692;2023-02-19T11:35:45;97304.97;;;-4.55;79.01
61484;BME280;47349;55.640;37.692;2023-02-19T11:38:15;97316.13;;;-4.63;79.33
61484;BME280;47349;55.640;37.692;2023-02-19T11:40:50;97307.06;;;-4.78;80.13
61484;BME280;47349;55.640;37.692;2023-02-19T11:43:29;97307.19;;;-4.80;80.14
61484;BME280;47349;55.640;37.692;2023-02-19T11:48:51;97309.28;;;-4.64;79.50
61484;BME280;47349;55.640;37.692;2023-02-19T11:51:25;97306.78;;;-4.66;78.41
61484;BME280;47349;55.640;37.692;2023-02-19T11:54:17;97303.75;;;-4.71;79.52
61484;BME280;47349;55.640;37.692;2023-02-19T11:56:44;97300.16;;;-4.60;79.00
61484;BME280;47349;55.640;37.692;2023-02-19T11:59:17;97292.16;;;-4.39;78.76
61484;BME280;47349;55.640;37.692;2023-02-19T12:12:32;97287.91;;;-4.59;76.71
61484;BME280;47349;55.640;37.692;2023-02-19T12:15:21;97293.59;;;-4.74;75.89
61484;BME280;47349;55.640;37.692;2023-02-19T12:31:01;97287.81;;;-4.77;76.70
61484;BME280;47349;55.640;37.692;2023-02-19T12:41:27;97297.56;;;-4.99;80.04
61484;BME280;47349;55.640;37.692;2023-02-19T12:43:59;97300.75;;;-5.05;79.69
61484;BME280;47349;55.640;37.692;2023-02-19T12:46:31;97299.25;;;-5.07;79.52
61484;BME280;47349;55.640;37.692;2023-02-19T12:51:40;97306.38;;;-5.09;79.23
61484;BME280;47349;55.640;37.692;2023-02-19T12:54:33;97299.25;;;-5.07;80.12
61484;BME280;47349;55.640;37.692;2023-02-19T12:57:04;97307.75;;;-5.15;79.97
61484;BME280;47349;55.640;37.692;2023-02-19T12:59:34;97307.34;;;-5.10;79.64
61484;BME280;47349;55.640;37.692;2023-02-19T13:04:41;97315.31;;;-5.12;80.72
61484;BME280;47349;55.640;37.692;2023-02-19T13:07:23;97312.28;;;-5.17;80.26
61484;BME280;47349;55.640;37.692;2023-02-19T13:09:55;97310.34;;;-5.25;80.71
61484;BME280;47349;55.640;37.692;2023-02-19T13:12:28;97310.88;;;-5.31;81.38
61484;BME280;47349;55.640;37.692;2023-02-19T13:15:00;97315.41;;;-5.33;82.32
61484;BME280;47349;55.640;37.692;2023-02-19T13:23:05;97321.81;;;-5.47;84.15
61484;BME280;47349;55.640;37.692;2023-02-19T13:26:01;97312.25;;;-5.46;84.08
61484;BME280;47349;55.640;37.692;2023-02-19T13:36:29;97313.44;;;-5.60;85.85
61484;BME280;47349;55.640;37.692;2023-02-19T13:38:57;97314.91;;;-5.67;86.88
61484;BME280;47349;55.640;37.692;2023-02-19T13:41:26;97319.16;;;-5.66;86.89
61484;BME280;47349;55.640;37.692;2023-02-19T13:43:55;97308.31;;;-5.61;86.73
61484;BME280;47349;55.640;37.692;2023-02-19T13:46:23;97316.88;;;-5.59;86.07
61484;BME280;47349;55.640;37.692;2023-02-19T13:49:22;97313.53;;;-5.61;85.88
61484;BME280;47349;55.640;37.692;2023-02-19T13:51:43;97308.47;;;-5.63;86.14
61484;BME280;47349;55.640;37.692;2023-02-19T13:54:18;97313.84;;;-5.64;86.31
61484;BME280;47349;55.640;37.692;2023-02-19T13:56:46;97309.16;;;-5.61;85.53
61484;BME280;47349;55.640;37.692;2023-02-19T14:30:57;97289.03;;;-5.99;89.81
61484;BME280;47349;55.640;37.692;2023-02-19T14:33:29;97280.25;;;-5.98;88.42
61484;BME280;47349;55.640;37.692;2023-02-19T14:36:02;97283.75;;;-6.18;89.14
61484;BME280;47349;55.640;37.692;2023-02-19T14:38:35;97280.31;;;-6.09;89.22
61484;BME280;47349;55.640;37.692;2023-02-19T14:41:03;97278.44;;;-6.07;89.34
61484;BME280;47349;55.640;37.692;2023-02-19T14:43:32;97278.44;;;-6.07;88.88
61484;BME280;47349;55.640;37.692;2023-02-19T14:46:02;97279.94;;;-6.05;88.35
61484;BME280;47349;55.640;37.692;2023-02-19T14:48:31;97278.28;;;-6.06;89.09
61484;BME280;47349;55.640;37.692;2023-02-19T14:51:06;97273.91;;;-6.05;89.10
61484;BME280;47349;55.640;37.692;2023-02-19T14:53:36;97279.81;;;-6.03;89.02
61484;BME280;47349;55.640;37.692;2023-02-19T14:56:05;97271.13;;;-6.13;89.33
61484;BME280;47349;55.640;37.692;2023-02-19T14:58:34;97272.66;;;-6.11;89.35
61484;BME280;47349;55.640;37.692;2023-02-19T15:01:02;97269.66;;;-6.06;88.72
61484;BME280;47349;55.640;37.692;2023-02-19T15:03:47;97270.06;;;-6.01;89.04
61484;BME280;47349;55.640;37.692;2023-02-19T15:06:15;97277.47;;;-6.06;88.55
61484;BME280;47349;55.640;37.692;2023-02-19T15:08:45;97273.84;;;-6.15;88.01
61484;BME280;47349;55.640;37.692;2023-02-19T15:11:15;97272.34;;;-6.17;88.92
61484;BME280;47349;55.640;37.692;2023-02-19T15:13:49;97275.22;;;-6.21;88.71
61484;BME280;47349;55.640;37.692;2023-02-19T15:16:17;97268.13;;;-6.09;89.09
61484;BME280;47349;55.640;37.692;2023-02-19T15:18:45;97275.09;;;-6.09;87.96